Time;durP1;ratioP1;P1;durP2;ratioP2;P2;SDS_P1;SDS_P2;PMS_P1;PMS_P2;Temp;Humidity;BMP_temperature;BMP_pressure;BME280_temperature;BME280_humidity;BME280_pressure;Samples;Min_cycle;Max_cycle;Signal;HPM_P1;HPM_P2
2021/12/12 00:01:12;;;;;;;164.98;61.97;;;;;;;-2.46;100.00;99313.09;4369432;32;20035;-72
2021/12/12 00:03:47;;;;;;;144.93;56.67;;;;;;;-2.28;100.00;99357.81;4364359;32;20062;-71
2021/12/12 00:06:25;;;;;;;156.70;61.83;;;;;;;-2.35;100.00;99357.62;4355622;32;20087;-71
2021/12/12 00:08:57;;;;;;;156.60;57.67;;;;;;;-2.73;100.00;99296.47;4340780;32;20048;-71
2021/12/12 00:11:28;;;;;;;148.65;58.00;;;;;;;-2.37;100.00;99359.59;4355466;32;20093;-71
2021/12/12 00:14:05;;;;;;;170.27;57.07;;;;;;;-2.34;100.00;99369.03;4355544;32;20171;-71
2021/12/12 00:16:32;;;;;;;144.27;53.35;;;;;;;-2.37;100.00;99364.88;4339802;32;20040;-72
2021/12/12 00:19:00;;;;;;;163.00;58.17;;;;;;;-2.67;100.00;99324.84;4355177;32;20063;-71
2021/12/12 00:21:29;;;;;;;153.70;57.97;;;;;;;-2.39;100.00;99356.31;4355676;32;20052;-71
2021/12/12 00:23:56;;;;;;;141.73;54.47;;;;;;;-2.61;100.00;99326.88;4355551;32;20037;-71
2021/12/12 00:26:25;;;;;;;138.95;57.03;;;;;;;-2.47;100.00;99361.53;4354803;32;20646;-72
2021/12/12 00:28:52;;;;;;;158.02;54.72;;;;;;;-2.47;100.00;99369.44;4354431;32;20160;-71
2021/12/12 00:31:22;;;;;;;147.80;53.35;;;;;;;-2.45;100.00;99367.50;4355333;32;20048;-71
2021/12/12 00:33:52;;;;;;;161.37;57.30;;;;;;;-2.44;100.00;99363.84;4355253;32;20457;-72
2021/12/12 00:36:21;;;;;;;149.60;57.03;;;;;;;-2.43;100.00;99370.78;4353557;32;20065;-71
2021/12/12 00:38:54;;;;;;;152.98;60.15;;;;;;;-2.44;100.00;99359.41;4355091;32;20060;-71
2021/12/12 00:41:27;;;;;;;150.07;57.08;;;;;;;-2.43;100.00;99354.97;4355461;32;20408;-71
2021/12/12 00:43:54;;;;;;;145.82;55.58;;;;;;;-2.40;100.00;99359.94;4355516;32;20040;-72
2021/12/12 00:46:24;;;;;;;162.75;55.20;;;;;;;-2.53;100.00;99341.09;4351737;32;20071;-72
2021/12/12 00:48:52;;;;;;;153.40;55.90;;;;;;;-2.70;100.00;99311.16;4354707;32;20205;-72
2021/12/12 00:51:38;;;;;;;150.68;55.92;;;;;;;-2.68;100.00;99320.59;4355313;33;20047;-71
2021/12/12 00:54:05;;;;;;;150.02;55.30;;;;;;;-2.49;100.00;99366.13;4364508;32;20082;-71
2021/12/12 00:56:32;;;;;;;146.87;51.83;;;;;;;-2.53;100.00;99344.53;4370257;32;20040;-71
2021/12/12 00:59:00;;;;;;;146.30;54.80;;;;;;;-2.46;100.00;99355.28;4370282;32;20057;-71
2021/12/12 01:01:35;;;;;;;171.93;60.40;;;;;;;-2.37;100.00;99354.34;4368466;32;20368;-70
2021/12/12 01:04:10;;;;;;;164.00;57.13;;;;;;;-2.37;100.00;99360.44;4369344;32;20043;-71
2021/12/12 01:06:37;;;;;;;141.77;53.30;;;;;;;-2.35;100.00;99360.28;4369100;32;20043;-70
2021/12/12 01:09:07;;;;;;;138.20;53.03;;;;;;;-2.39;100.00;99366.88;4369722;32;20043;-71
2021/12/12 01:11:38;;;;;;;149.95;56.10;;;;;;;-2.36;100.00;99369.19;4370207;32;20040;-72
2021/12/12 01:14:10;;;;;;;156.48;52.97;;;;;;;-2.42;100.00;99357.44;4369867;32;20487;-71
2021/12/12 01:16:41;;;;;;;171.75;54.30;;;;;;;-2.37;100.00;99359.59;4370247;32;20669;-70
2021/12/12 01:19:17;;;;;;;163.77;60.97;;;;;;;-2.71;100.00;99326.16;4369752;32;20043;-70
2021/12/12 01:21:53;;;;;;;173.27;60.08;;;;;;;-2.68;100.00;99325.00;4368582;32;20392;-71
2021/12/12 01:24:26;;;;;;;171.60;60.72;;;;;;;-2.36;100.00;99374.47;4370277;32;20054;-71
2021/12/12 01:26:55;;;;;;;158.10;57.83;;;;;;;-2.49;100.00;99340.63;4373248;32;20028;-70
2021/12/12 01:29:22;;;;;;;165.45;54.83;;;;;;;-2.42;100.00;99368.00;4371158;32;20069;-70
2021/12/12 01:31:50;;;;;;;142.20;53.17;;;;;;;-2.75;100.00;99317.72;4372508;32;20081;-70
2021/12/12 01:34:28;;;;;;;175.57;59.22;;;;;;;-2.98;100.00;99277.91;4372165;32;20047;-70
2021/12/12 01:37:12;;;;;;;158.23;57.00;;;;;;;-2.53;100.00;99349.00;4357661;32;20174;-71
2021/12/12 01:39:43;;;;;;;159.50;55.95;;;;;;;-2.55;100.00;99343.88;4371299;32;20453;-71
2021/12/12 01:42:22;;;;;;;152.73;51.95;;;;;;;-2.52;100.00;99367.28;4372927;32;20047;-71
2021/12/12 01:45:09;;;;;;;157.00;48.72;;;;;;;-2.77;100.00;99321.50;4372715;32;20092;-71
2021/12/12 01:47:42;;;;;;;148.45;51.90;;;;;;;-2.74;100.00;99321.22;4372787;32;20410;-71
2021/12/12 01:50:13;;;;;;;157.12;51.55;;;;;;;-2.48;100.00;99367.81;4368636;32;20083;-72
2021/12/12 01:52:41;;;;;;;169.45;59.13;;;;;;;-2.49;100.00;99377.53;4372892;32;20444;-71
2021/12/12 01:55:21;;;;;;;168.30;57.13;;;;;;;-2.54;100.00;99371.06;4371380;32;20032;-71
2021/12/12 01:57:49;;;;;;;180.05;57.53;;;;;;;-2.52;100.00;99371.72;4372099;32;20433;-72
2021/12/12 02:00:41;;;;;;;163.32;50.90;;;;;;;-2.51;100.00;99383.94;4370986;32;20057;-71
2021/12/12 02:03:11;;;;;;;155.70;50.10;;;;;;;-2.56;100.00;99377.31;4372510;32;20043;-71
2021/12/12 02:05:38;;;;;;;147.18;48.03;;;;;;;-2.57;100.00;99375.66;4370967;32;20054;-71
2021/12/12 02:08:12;;;;;;;154.75;49.80;;;;;;;-2.55;100.00;99378.16;4372396;32;20117;-71
2021/12/12 02:10:48;;;;;;;176.37;56.05;;;;;;;-2.56;100.00;99385.22;4372424;32;20039;-69
2021/12/12 02:13:17;;;;;;;212.15;53.90;;;;;;;-2.66;100.00;99373.16;4371915;32;20071;-72
2021/12/12 02:15:47;;;;;;;157.00;56.45;;;;;;;-2.62;100.00;99377.09;4353012;32;20448;-71
2021/12/12 02:18:18;;;;;;;168.57;55.45;;;;;;;-2.60;100.00;99381.25;4372114;32;20075;-71
2021/12/12 02:21:36;;;;;;;154.25;53.10;;;;;;;-2.56;100.00;99387.84;4358802;32;20441;-71
2021/12/12 02:37:18;;;;;;;170.48;54.05;;;;;;;-2.63;100.00;99376.28;4371499;32;20404;-71
2021/12/12 02:39:45;;;;;;;166.20;52.80;;;;;;;-2.74;100.00;99368.66;4370531;32;20071;-71
2021/12/12 02:42:14;;;;;;;167.93;48.40;;;;;;;-2.60;100.00;99388.31;4370100;32;20035;-71
2021/12/12 02:44:43;;;;;;;162.57;47.55;;;;;;;-2.65;100.00;99393.25;4371601;32;20414;-71
2021/12/12 02:47:17;;;;;;;143.05;47.40;;;;;;;-2.95;100.00;99346.13;4372153;32;20040;-71
2021/12/12 02:50:07;;;;;;;128.18;41.60;;;;;;;-2.76;100.00;99402.22;4355153;32;20079;-72
2021/12/12 02:52:33;;;;;;;137.70;44.00;;;;;;;-2.84;100.00;99373.19;4371746;32;20027;-71
2021/12/12 02:55:12;;;;;;;160.57;45.60;;;;;;;-3.07;100.00;99344.72;4358629;32;20384;-70
2021/12/12 02:57:39;;;;;;;161.35;46.50;;;;;;;-2.83;100.00;99380.12;4357015;32;20240;-70
2021/12/12 03:00:12;;;;;;;164.35;44.22;;;;;;;-2.84;100.00;99378.44;4355395;32;20040;-71
2021/12/12 03:02:45;;;;;;;170.55;45.38;;;;;;;-3.16;100.00;99343.84;4356526;32;20044;-71
2021/12/12 03:05:16;;;;;;;153.45;44.50;;;;;;;-2.88;100.00;99385.03;4354628;32;20044;-71
2021/12/12 03:07:50;;;;;;;156.57;49.40;;;;;;;-2.83;100.00;99395.94;4356901;32;20109;-71
2021/12/12 03:10:25;;;;;;;192.57;47.60;;;;;;;-2.92;100.00;99377.44;4360264;32;20047;-70
2021/12/12 03:12:52;;;;;;;148.05;44.05;;;;;;;-3.10;100.00;99345.00;4370669;32;20035;-71
2021/12/12 03:15:22;;;;;;;175.30;49.55;;;;;;;-3.28;100.00;99340.59;4370990;32;20175;-71
2021/12/12 03:17:51;;;;;;;164.60;47.33;;;;;;;-3.13;100.00;99384.84;4371688;32;20489;-71
2021/12/12 03:20:43;;;;;;;145.15;46.05;;;;;;;-2.98;100.00;99393.84;4370369;32;20392;-71
2021/12/12 03:23:21;;;;;;;169.48;46.60;;;;;;;-2.93;100.00;99388.94;4367944;32;20161;-71
2021/12/12 03:25:52;;;;;;;158.07;47.22;;;;;;;-3.19;100.00;99348.56;4369733;32;20438;-71
2021/12/12 03:28:23;;;;;;;150.43;43.13;;;;;;;-2.93;100.00;99385.50;4370186;32;20087;-71
2021/12/12 03:30:53;;;;;;;127.47;41.22;;;;;;;-3.02;100.00;99400.41;4369579;32;20044;-70
2021/12/12 03:33:21;;;;;;;154.48;44.65;;;;;;;-3.08;100.00;99408.09;4370136;32;20079;-70
2021/12/12 03:35:50;;;;;;;131.32;40.83;;;;;;;-3.00;100.00;99416.06;4370729;32;20087;-69
2021/12/12 03:38:17;;;;;;;150.82;43.47;;;;;;;-3.23;100.00;99373.56;4368660;32;20065;-70
2021/12/12 03:40:45;;;;;;;162.57;43.87;;;;;;;-3.46;100.00;99342.44;4370860;32;20121;-70
2021/12/12 03:43:14;;;;;;;168.07;46.03;;;;;;;-2.89;100.00;99443.97;4366537;32;20069;-69
2021/12/12 03:45:42;;;;;;;164.98;47.05;;;;;;;-3.18;100.00;99398.47;4355784;32;20069;-70
2021/12/12 03:48:17;;;;;;;143.93;44.17;;;;;;;-2.80;100.00;99445.69;4355256;32;20047;-71
2021/12/12 03:50:45;;;;;;;138.32;35.78;;;;;;;-2.85;100.00;99451.44;4355874;32;20052;-70
2021/12/12 03:53:14;;;;;;;135.65;34.83;;;;;;;-3.16;100.00;99417.59;4355982;32;20073;-70
2021/12/12 03:55:44;;;;;;;129.35;35.05;;;;;;;-3.21;100.00;99413.75;4356055;32;20044;-70
2021/12/12 03:58:12;;;;;;;134.18;36.58;;;;;;;-3.17;100.00;99423.81;4352254;32;20444;-71
2021/12/12 04:00:43;;;;;;;143.65;37.63;;;;;;;-2.92;100.00;99482.00;4355633;32;20060;-70
2021/12/12 04:03:11;;;;;;;155.90;40.30;;;;;;;-2.96;100.00;99475.37;4357278;32;20047;-70
2021/12/12 04:05:38;;;;;;;129.80;37.10;;;;;;;-2.98;100.00;99483.44;4370272;32;20035;-70
2021/12/12 04:08:05;;;;;;;131.55;36.47;;;;;;;-3.02;100.00;99479.44;4368557;32;20043;-70
2021/12/12 04:10:32;;;;;;;132.63;35.92;;;;;;;-3.01;100.00;99483.75;4370905;32;20450;-70
2021/12/12 04:12:59;;;;;;;124.53;33.85;;;;;;;-3.08;100.00;99493.22;4370842;32;20035;-71
2021/12/12 04:15:26;;;;;;;114.70;32.58;;;;;;;-3.08;100.00;99487.12;4370179;32;20085;-70
2021/12/12 04:17:52;;;;;;;121.80;31.45;;;;;;;-3.07;100.00;99494.06;4370116;32;20342;-70
2021/12/12 04:20:30;;;;;;;114.65;31.08;;;;;;;-3.19;100.00;99481.13;4354986;32;20061;-71
2021/12/12 04:22:57;;;;;;;121.25;31.95;;;;;;;-3.29;100.00;99502.25;4370560;32;20043;-68
2021/12/12 04:25:25;;;;;;;139.80;36.28;;;;;;;-3.30;100.00;99500.59;4370395;32;20039;-71
2021/12/12 04:27:52;;;;;;;108.50;28.42;;;;;;;-3.35;100.00;99500.22;4370729;32;20069;-71
2021/12/12 04:30:23;;;;;;;124.15;28.85;;;;;;;-3.36;100.00;99506.44;4368442;32;20349;-71
2021/12/12 04:32:51;;;;;;;123.72;31.37;;;;;;;-3.47;100.00;99489.03;4363650;32;20426;-70
2021/12/12 04:35:25;;;;;;;109.05;30.83;;;;;;;-3.41;100.00;99508.69;4354366;32;20040;-70
2021/12/12 04:37:54;;;;;;;154.15;34.47;;;;;;;-3.41;100.00;99510.50;4355740;32;20052;-71
2021/12/12 04:40:23;;;;;;;115.97;29.08;;;;;;;-3.36;100.00;99514.34;4353937;32;20048;-72
2021/12/12 04:42:52;;;;;;;150.98;29.00;;;;;;;-3.65;100.00;99460.06;4355518;32;20066;-71
2021/12/12 04:45:56;;;;;;;134.10;29.58;;;;;;;-3.52;100.00;99479.94;4354639;32;20114;-71
2021/12/12 04:51:29;;;;;;;;;;;;;;;-3.30;100.00;99516.38;4352361;32;20380;-71
2021/12/12 04:54:07;;;;;;;154.68;37.17;;;;;;;-3.30;100.00;99513.75;4342244;33;19976;-71
2021/12/12 04:56:54;;;;;;;133.77;29.50;;;;;;;-3.41;100.00;99529.75;4355448;33;20043;-70
2021/12/12 04:59:39;;;;;;;116.43;28.52;;;;;;;-3.40;100.00;99526.13;4355045;32;20388;-71
2021/12/12 05:02:25;;;;;;;166.70;30.25;;;;;;;-3.56;100.00;99521.50;4358130;32;20120;-71
2021/12/12 05:05:08;;;;;;;146.95;35.65;;;;;;;-3.93;100.00;99472.38;4357134;32;20052;-70
2021/12/12 05:07:42;;;;;;;160.52;27.13;;;;;;;-3.90;100.00;99479.16;4358725;32;20048;-70
2021/12/12 05:10:21;;;;;;;162.35;34.65;;;;;;;-3.59;100.00;99523.63;4357239;32;20033;-71
2021/12/12 05:13:00;;;;;;;141.20;25.52;;;;;;;-3.55;100.00;99519.72;4358330;32;20060;-71
2021/12/12 05:15:53;;;;;;;147.82;28.87;;;;;;;-3.59;100.00;99523.63;4355898;32;20040;-71
2021/12/12 05:18:28;;;;;;;138.82;30.95;;;;;;;-3.54;100.00;99510.84;4358479;32;20200;-71
2021/12/12 05:21:06;;;;;;;132.20;27.65;;;;;;;-3.66;100.00;99505.75;4355368;32;20036;-71
2021/12/12 05:23:34;;;;;;;119.45;28.02;;;;;;;-3.57;100.00;99503.25;4358309;32;20052;-71
2021/12/12 05:26:13;;;;;;;134.60;29.87;;;;;;;-3.45;100.00;99520.50;4358315;32;20044;-71
2021/12/12 05:28:48;;;;;;;129.73;31.10;;;;;;;-3.43;100.00;99534.34;4357122;32;20061;-71
2021/12/12 05:31:16;;;;;;;149.23;31.45;;;;;;;-3.44;100.00;99527.44;4357748;32;20077;-71
2021/12/12 05:33:45;;;;;;;109.68;29.35;;;;;;;-3.51;100.00;99505.28;4358167;32;20081;-71
2021/12/12 05:36:13;;;;;;;136.60;30.30;;;;;;;-3.65;100.00;99477.66;4356402;32;20074;-70
2021/12/12 05:38:40;;;;;;;131.32;33.25;;;;;;;-3.36;100.00;99522.25;4342695;32;20057;-71
2021/12/12 05:41:08;;;;;;;109.90;31.05;;;;;;;-3.55;100.00;99485.50;4357780;32;20063;-71
2021/12/12 05:43:35;;;;;;;129.85;33.17;;;;;;;-3.54;100.00;99488.00;4357675;32;20063;-71
2021/12/12 05:46:02;;;;;;;207.15;41.28;;;;;;;-3.33;100.00;99526.41;4357447;32;20070;-71
2021/12/12 05:48:29;;;;;;;195.77;32.00;;;;;;;-3.42;100.00;99522.81;4357061;32;20059;-69
2021/12/12 05:50:56;;;;;;;175.93;30.35;;;;;;;-3.45;100.00;99523.13;4356702;32;20040;-70
2021/12/12 05:53:23;;;;;;;134.00;26.92;;;;;;;-3.46;100.00;99542.53;4357977;32;20032;-70
2021/12/12 05:55:51;;;;;;;145.43;28.75;;;;;;;-3.61;100.00;99530.84;4357846;32;20081;-70
2021/12/12 05:58:21;;;;;;;115.93;28.75;;;;;;;-3.56;100.00;99531.22;4357847;32;20073;-70
2021/12/12 06:00:56;;;;;;;93.22;25.27;;;;;;;-3.52;100.00;99536.06;4355135;32;20080;-70
2021/12/12 06:03:27;;;;;;;186.98;30.98;;;;;;;-3.87;100.00;99502.56;4358976;32;20081;-71
2021/12/12 06:05:57;;;;;;;98.53;25.58;;;;;;;-3.94;100.00;99501.47;4357260;32;20316;-70
2021/12/12 06:08:27;;;;;;;97.43;25.17;;;;;;;-3.63;100.00;99540.69;4358139;32;20031;-71
2021/12/12 06:10:55;;;;;;;95.12;24.00;;;;;;;-3.58;100.00;99548.97;4372231;32;20051;-70
2021/12/12 06:13:22;;;;;;;91.75;21.58;;;;;;;-3.60;100.00;99556.19;4371016;32;20035;-70
2021/12/12 06:15:53;;;;;;;138.73;30.35;;;;;;;-3.65;100.00;99554.00;4358693;32;20039;-70
2021/12/12 06:18:25;;;;;;;103.28;21.52;;;;;;;-3.63;100.00;99546.78;4370905;32;20039;-73
2021/12/12 06:20:53;;;;;;;155.00;29.70;;;;;;;-4.10;100.00;99508.19;4371239;32;20097;-70
2021/12/12 06:23:20;;;;;;;173.30;24.92;;;;;;;-3.88;100.00;99548.25;4372370;32;20062;-70
2021/12/12 06:25:49;;;;;;;159.90;30.88;;;;;;;-3.86;100.00;99567.34;4358705;32;20027;-70
2021/12/12 06:28:24;;;;;;;98.18;21.92;;;;;;;-3.82;100.00;99560.84;4362267;32;20047;-70
2021/12/12 06:30:52;;;;;;;97.80;25.12;;;;;;;-3.89;100.00;99568.47;4357078;32;20044;-72
2021/12/12 06:33:19;;;;;;;129.27;21.62;;;;;;;-3.86;100.00;99568.19;4357625;32;20048;-70
2021/12/12 06:35:46;;;;;;;131.30;23.38;;;;;;;-3.90;100.00;99569.44;4356877;32;20037;-70
2021/12/12 06:38:13;;;;;;;94.68;21.50;;;;;;;-3.92;100.00;99562.69;4361947;32;20069;-70
2021/12/12 06:40:42;;;;;;;102.50;22.58;;;;;;;-4.22;100.00;99518.03;4369401;32;20055;-69
2021/12/12 06:43:10;;;;;;;103.50;23.33;;;;;;;-3.94;100.00;99559.34;4372194;32;20460;-69
2021/12/12 06:45:37;;;;;;;80.68;21.33;;;;;;;-3.88;100.00;99574.56;4370707;32;20103;-69
2021/12/12 06:48:10;;;;;;;136.12;26.77;;;;;;;-4.15;100.00;99531.44;4370024;32;20085;-71
2021/12/12 06:50:39;;;;;;;96.00;23.12;;;;;;;-3.94;100.00;99583.03;4371927;32;20089;-70
2021/12/12 06:53:06;;;;;;;85.25;22.70;;;;;;;-4.02;100.00;99567.94;4369726;32;20069;-70
2021/12/12 06:55:36;;;;;;;77.57;20.88;;;;;;;-3.96;100.00;99571.81;4354145;32;20039;-70
2021/12/12 06:58:06;;;;;;;70.47;20.12;;;;;;;-4.18;100.00;99530.91;4354888;32;20388;-72
2021/12/12 07:00:35;;;;;;;167.40;27.25;;;;;;;-3.96;100.00;99574.44;4356517;32;20956;-70
2021/12/12 07:03:01;;;;;;;66.18;16.87;;;;;;;-4.27;100.00;99548.38;4355271;32;20070;-71
2021/12/12 07:05:30;;;;;;;89.62;19.20;;;;;;;-4.03;100.00;99598.69;4358712;32;20039;-71
2021/12/12 07:07:57;;;;;;;130.02;25.67;;;;;;;-4.10;100.00;99584.47;4360375;32;20129;-71
2021/12/12 07:10:27;;;;;;;101.65;22.98;;;;;;;-4.09;100.00;99572.94;4371469;32;20543;-70
2021/12/12 07:12:56;;;;;;;95.95;22.92;;;;;;;-4.23;100.00;99557.63;4371807;32;20460;-70
2021/12/12 07:15:29;;;;;;;80.28;21.00;;;;;;;-4.18;100.00;99560.66;4371249;32;20110;-70
2021/12/12 07:17:56;;;;;;;;;;;;;;;-3.92;100.00;99616.12;4369880;32;20061;-70
2021/12/12 07:20:24;;;;;;;83.10;21.95;;;;;;;-3.97;100.00;99622.78;4371086;32;19946;-68
2021/12/12 07:22:52;;;;;;;87.57;22.20;;;;;;;-3.89;100.00;99620.28;4357557;32;20039;-69
2021/12/12 07:25:20;;;;;;;92.88;22.80;;;;;;;-3.87;100.00;99613.06;4371471;32;20039;-71
2021/12/12 07:27:51;;;;;;;81.37;21.17;;;;;;;-4.02;100.00;99581.94;4371799;32;20175;-71
2021/12/12 07:30:18;;;;;;;81.47;22.55;;;;;;;-3.92;100.00;99578.47;4354678;32;20069;-71
2021/12/12 07:32:45;;;;;;;76.45;20.98;;;;;;;-3.65;100.00;99623.25;4370803;32;20051;-70
2021/12/12 07:35:13;;;;;;;83.50;24.48;;;;;;;-3.72;100.00;99621.34;4357449;32;20081;-71
2021/12/12 07:37:42;;;;;;;72.40;19.55;;;;;;;-3.76;100.00;99619.97;4370856;32;20384;-70
2021/12/12 07:40:10;;;;;;;71.93;19.83;;;;;;;-3.66;100.00;99616.31;4369538;32;20047;-71
2021/12/12 07:42:38;;;;;;;86.82;23.62;;;;;;;-3.77;100.00;99619.13;4369921;32;20085;-68
2021/12/12 07:45:06;;;;;;;74.18;20.95;;;;;;;-3.72;100.00;99624.81;4342578;32;20342;-71
2021/12/12 07:47:32;;;;;;;69.85;19.15;;;;;;;-3.56;100.00;99623.34;4354573;32;20052;-70
2021/12/12 07:50:03;;;;;;;78.65;19.52;;;;;;;-3.62;100.00;99621.31;4355848;32;20061;-69
2021/12/12 07:52:29;;;;;;;83.85;20.75;;;;;;;-3.66;100.00;99616.31;4357442;32;20048;-70
2021/12/12 07:54:58;;;;;;;73.25;20.50;;;;;;;-3.93;100.00;99577.62;4363999;32;20067;-70
2021/12/12 07:57:29;;;;;;;97.65;22.23;;;;;;;-3.47;100.00;99627.75;4357476;32;20040;-71
2021/12/12 07:59:56;;;;;;;87.70;22.05;;;;;;;-3.44;100.00;99634.56;4355505;32;20442;-71
2021/12/12 08:02:24;;;;;;;93.10;25.40;;;;;;;-3.46;100.00;99616.28;4353744;32;20089;-72
2021/12/12 08:04:51;;;;;;;86.90;20.62;;;;;;;-3.68;100.00;99602.47;4353902;32;20063;-71
2021/12/12 08:07:22;;;;;;;73.55;20.50;;;;;;;-3.73;100.00;99588.94;4354708;33;20377;-71
2021/12/12 08:09:51;;;;;;;75.50;22.73;;;;;;;-3.95;100.00;99570.88;4357242;32;20047;-71
2021/12/12 08:12:29;;;;;;;74.40;18.87;;;;;;;-3.66;100.00;99603.16;4359845;32;20043;-71
2021/12/12 08:14:56;;;;;;;69.55;19.12;;;;;;;-3.26;100.00;99645.16;4369028;32;20056;-72
2021/12/12 08:17:24;;;;;;;73.50;21.45;;;;;;;-3.19;100.00;99630.41;4353128;32;20349;-71
2021/12/12 08:19:54;;;;;;;79.57;21.58;;;;;;;-3.22;100.00;99607.00;4356671;32;20624;-71
2021/12/12 08:22:21;;;;;;;99.22;25.10;;;;;;;-3.16;100.00;99627.47;4351584;32;20052;-71
2021/12/12 08:24:49;;;;;;;88.37;24.00;;;;;;;-3.32;100.00;99630.75;4367767;32;20352;-70
2021/12/12 08:27:16;;;;;;;94.07;23.92;;;;;;;-3.33;100.00;99640.47;4370360;32;20136;-71
2021/12/12 08:29:43;;;;;;;90.28;23.58;;;;;;;-3.52;100.00;99648.44;4356155;32;20384;-70
2021/12/12 08:32:12;;;;;;;96.07;26.55;;;;;;;-3.61;100.00;99649.28;4356597;32;20055;-69
2021/12/12 08:34:39;;;;;;;105.28;24.25;;;;;;;-3.51;100.00;99655.34;4355106;32;20039;-71
2021/12/12 08:37:06;;;;;;;117.37;25.45;;;;;;;-3.77;100.00;99613.03;4361140;32;20166;-71
2021/12/12 08:39:34;;;;;;;73.28;22.55;;;;;;;-3.72;100.00;99648.50;4363300;32;20106;-71
2021/12/12 08:42:04;;;;;;;91.40;21.42;;;;;;;-3.63;100.00;99657.31;4364743;32;20051;-70
2021/12/12 08:44:33;;;;;;;126.18;26.23;;;;;;;-3.54;100.00;99666.16;4368045;32;20061;-71
2021/12/12 08:47:02;;;;;;;73.43;19.52;;;;;;;-3.77;100.00;99624.38;4366537;32;20056;-71
2021/12/12 08:49:31;;;;;;;70.62;18.90;;;;;;;-3.50;100.00;99672.81;4354536;32;20069;-70
2021/12/12 08:52:12;;;;;;;112.78;23.80;;;;;;;-3.49;100.00;99674.47;4353564;32;20044;-70
2021/12/12 08:54:41;;;;;;;68.00;17.60;;;;;;;-3.72;100.00;99632.72;4355809;32;20834;-70
2021/12/12 08:57:20;;;;;;;113.75;20.25;;;;;;;-3.67;100.00;99667.31;4342271;33;20050;-69
2021/12/12 08:59:48;;;;;;;74.95;19.05;;;;;;;-3.98;100.00;99615.88;4354434;33;20078;-70
2021/12/12 09:02:17;;;;;;;69.37;17.92;;;;;;;-3.72;100.00;99661.66;4352096;33;20074;-71
2021/12/12 09:04:57;;;;;;;64.85;16.87;;;;;;;-3.88;100.00;99654.34;4353672;32;20044;-70
2021/12/12 09:07:32;;;;;;;72.75;17.42;;;;;;;-3.86;100.00;99656.81;4355233;33;20171;-70
2021/12/12 09:10:09;;;;;;;76.07;19.08;;;;;;;-3.70;100.00;99659.72;4351954;32;20061;-71
2021/12/12 09:12:48;;;;;;;81.43;20.52;;;;;;;-3.69;100.00;99655.25;4369243;32;20424;-71
2021/12/12 09:15:21;;;;;;;91.37;21.77;;;;;;;-3.74;100.00;99660.94;4369238;32;20337;-71
2021/12/12 09:17:53;;;;;;;85.50;21.10;;;;;;;-3.51;100.00;99661.47;4370101;32;20194;-71
2021/12/12 09:20:34;;;;;;;69.07;19.00;;;;;;;-3.48;100.00;99663.81;4365195;32;20174;-70
2021/12/12 09:23:06;;;;;;;47.80;12.73;;;;;;;-3.58;100.00;99676.16;4361454;32;20178;-71
2021/12/12 09:25:50;;;;;;;67.30;18.15;;;;;;;-3.88;100.00;99674.56;4364209;32;20062;-72
2021/12/12 09:28:26;;;;;;;60.20;16.25;;;;;;;-4.02;100.00;99671.41;4364794;32;20480;-70
2021/12/12 09:30:59;;;;;;;72.97;19.42;;;;;;;-3.89;100.00;99665.84;4367286;32;20073;-71
2021/12/12 09:33:38;;;;;;;85.50;18.10;;;;;;;-4.09;100.00;99665.00;4354634;32;20446;-71
2021/12/12 09:36:11;;;;;;;82.22;19.77;;;;;;;-3.85;100.00;99664.56;4368408;32;20047;-71
2021/12/12 09:38:45;;;;;;;57.17;17.90;;;;;;;-3.88;100.00;99669.28;4368197;32;20051;-71
2021/12/12 09:41:17;;;;;;;68.12;17.48;;;;;;;-4.18;100.00;99623.75;4363189;32;20036;-71
2021/12/12 09:44:07;;;;;;;80.18;20.65;;;;;;;-3.78;100.00;99680.66;4361779;32;20087;-71
2021/12/12 09:47:30;;;;;;;64.93;19.98;;;;;;;-3.85;100.00;99654.03;4368731;32;20051;-71
2021/12/12 09:53:28;;;;;;;90.00;23.62;;;;;;;-3.49;100.00;99654.25;4366060;32;20083;-72
2021/12/12 09:56:14;;;;;;;101.60;20.48;;;;;;;-3.46;100.00;99668.94;4349344;32;20044;-74
2021/12/12 09:58:55;;;;;;;76.47;21.83;;;;;;;-3.88;100.00;99603.50;4344346;32;20055;-71
2021/12/12 10:01:40;;;;;;;70.57;21.67;;;;;;;-3.38;100.00;99658.50;4357056;32;20055;-73
2021/12/12 10:04:26;;;;;;;79.10;20.10;;;;;;;-3.71;100.00;99607.22;4368352;32;20136;-73
2021/12/12 10:07:08;;;;;;;73.85;23.08;;;;;;;-3.38;100.00;99650.59;4359077;32;20051;-73
2021/12/12 10:09:59;;;;;;;73.53;20.20;;;;;;;-3.45;100.00;99641.59;4364771;32;20047;-73
2021/12/12 10:12:30;;;;;;;85.20;22.15;;;;;;;-3.38;100.00;99619.00;4361176;32;20555;-73
2021/12/12 10:14:57;;;;;;;78.47;18.80;;;;;;;-3.29;100.00;99623.41;4361252;32;20070;-73
2021/12/12 10:17:38;;;;;;;68.25;21.92;;;;;;;-3.57;100.00;99583.06;4363890;32;20201;-74
2021/12/12 10:20:24;;;;;;;75.33;23.03;;;;;;;-3.29;100.00;99617.28;4371028;32;20039;-74
2021/12/12 10:23:14;;;;;;;61.95;19.25;;;;;;;-3.31;100.00;99625.34;4368824;32;20085;-74
2021/12/12 10:26:05;;;;;;;64.85;20.33;;;;;;;-3.23;100.00;99623.78;4370329;32;20051;-74
2021/12/12 10:28:42;;;;;;;80.80;22.52;;;;;;;-3.44;100.00;99630.13;4358283;32;20057;-74
2021/12/12 10:31:21;;;;;;;78.65;22.35;;;;;;;-3.16;100.00;99627.47;4369290;32;20085;-74
2021/12/12 10:33:54;;;;;;;62.65;19.42;;;;;;;-3.40;100.00;99588.50;4353416;32;20055;-74
2021/12/12 10:36:32;;;;;;;58.63;18.37;;;;;;;-3.56;100.00;99628.63;4353848;32;20052;-74
2021/12/12 10:39:28;;;;;;;70.18;22.25;;;;;;;-3.67;100.00;99584.88;4353581;32;20073;-73
2021/12/12 10:42:00;;;;;;;73.78;20.40;;;;;;;-3.47;100.00;99630.41;4350875;33;20062;-74
2021/12/12 10:44:36;;;;;;;78.50;23.23;;;;;;;-3.43;100.00;99626.50;4354582;32;20095;-74
2021/12/12 10:47:17;;;;;;;112.28;35.22;;;;;;;-3.47;100.00;99619.87;4353571;32;20403;-75
2021/12/12 10:50:02;;;;;;;81.78;25.88;;;;;;;-3.36;100.00;99585.44;4355553;32;20336;-73
2021/12/12 10:52:40;;;;;;;109.85;34.38;;;;;;;-3.26;100.00;99631.97;4357136;32;20072;-73
2021/12/12 10:55:35;;;;;;;125.68;35.85;;;;;;;-3.23;100.00;99605.34;4355974;32;20466;-73
2021/12/12 10:58:14;;;;;;;177.52;53.38;;;;;;;-2.96;100.00;99629.03;4356168;32;20078;-73
2021/12/12 11:00:48;;;;;;;86.40;25.20;;;;;;;-3.23;100.00;99584.28;4355565;32;20057;-73
2021/12/12 11:03:36;;;;;;;110.88;35.80;;;;;;;-3.20;100.00;99600.62;4355706;32;20055;-73
2021/12/12 11:06:08;;;;;;;73.28;26.20;;;;;;;-3.35;100.00;99591.53;4354182;32;20035;-73
2021/12/12 11:08:51;;;;;;;56.17;20.05;;;;;;;-3.34;100.00;99625.63;4356524;32;20085;-73
2021/12/12 11:11:29;;;;;;;76.37;21.25;;;;;;;-3.95;100.00;99586.66;4356607;32;20081;-74
2021/12/12 11:14:14;;;;;;;74.15;20.20;;;;;;;-3.30;100.00;99632.28;4355238;32;20363;-73
2021/12/12 11:16:56;;;;;;;90.62;24.33;;;;;;;-3.18;100.00;99630.25;4356130;32;20406;-74
2021/12/12 11:19:34;;;;;;;81.43;19.35;;;;;;;-2.98;100.00;99632.81;4355178;32;20054;-73
2021/12/12 11:22:09;;;;;;;78.55;21.95;;;;;;;-3.21;100.00;99629.72;4356252;32;20366;-73
2021/12/12 11:24:41;;;;;;;78.25;21.87;;;;;;;-3.31;100.00;99619.25;4356214;32;20451;-73
2021/12/12 11:27:14;;;;;;;78.85;23.33;;;;;;;-3.59;100.00;99576.25;4355077;32;20039;-73
2021/12/12 11:29:58;;;;;;;90.43;25.33;;;;;;;-3.63;100.00;99573.09;4354189;32;20066;-73
2021/12/12 11:32:29;;;;;;;95.00;31.40;;;;;;;-3.44;100.00;99576.63;4356310;32;20052;-73
2021/12/12 11:34:57;;;;;;;;;;;;;;;-3.32;100.00;99610.53;4354676;32;20101;-73
2021/12/12 11:37:44;;;;;;;64.47;22.25;;;;;;;-3.34;100.00;99625.63;4356455;32;19939;-74
2021/12/12 11:40:20;;;;;;;74.12;21.67;;;;;;;-3.29;100.00;99628.66;4354949;32;20042;-73
2021/12/12 11:42:56;;;;;;;72.85;21.77;;;;;;;-3.14;100.00;99615.00;4356088;32;20167;-74
2021/12/12 11:45:39;;;;;;;74.05;23.20;;;;;;;-3.47;100.00;99577.75;4355616;32;20427;-74
2021/12/12 11:48:20;;;;;;;77.22;22.30;;;;;;;-3.56;100.00;99626.00;4353131;32;20081;-74
2021/12/12 11:51:06;;;;;;;90.15;24.05;;;;;;;-3.49;100.00;99627.09;4354273;32;20035;-74